sensor_id;sensor_type;location;lat;lon;timestamp;P1;durP1;ratioP1;P2;durP2;ratioP2
12635;SDS011;6383;50.830;7.210;2022-12-18T00:00:03;38.80;;;19.70;;
12635;SDS011;6383;50.830;7.210;2022-12-18T00:02:34;43.88;;;21.45;;
12635;SDS011;6383;50.830;7.210;2022-12-18T00:05:03;38.35;;;20.83;;
12635;SDS011;6383;50.830;7.210;2022-12-18T00:07:32;45.47;;;21.38;;
12635;SDS011;6383;50.830;7.210;2022-12-18T00:10:00;38.10;;;19.00;;
12635;SDS011;6383;50.830;7.210;2022-12-18T00:12:29;35.17;;;19.02;;
12635;SDS011;6383;50.830;7.210;2022-12-18T00:14:58;37.28;;;21.20;;
12635;SDS011;6383;50.830;7.210;2022-12-18T00:17:26;35.10;;;20.65;;
12635;SDS011;6383;50.830;7.210;2022-12-18T00:19:55;35.15;;;21.05;;
12635;SDS011;6383;50.830;7.210;2022-12-18T00:22:24;35.85;;;20.70;;
12635;SDS011;6383;50.830;7.210;2022-12-18T00:24:51;33.47;;;19.70;;
12635;SDS011;6383;50.830;7.210;2022-12-18T00:27:19;31.17;;;17.63;;
12635;SDS011;6383;50.830;7.210;2022-12-18T00:29:47;28.65;;;15.57;;
12635;SDS011;6383;50.830;7.210;2022-12-18T00:32:15;34.63;;;16.85;;
12635;SDS011;6383;50.830;7.210;2022-12-18T00:34:43;27.70;;;16.52;;
12635;SDS011;6383;50.830;7.210;2022-12-18T00:37:13;26.35;;;14.63;;
12635;SDS011;6383;50.830;7.210;2022-12-18T00:39:42;31.60;;;15.68;;
12635;SDS011;6383;50.830;7.210;2022-12-18T00:42:11;35.42;;;19.35;;
12635;SDS011;6383;50.830;7.210;2022-12-18T00:44:56;37.60;;;23.45;;
12635;SDS011;6383;50.830;7.210;2022-12-18T00:47:25;25.48;;;16.70;;
12635;SDS011;6383;50.830;7.210;2022-12-18T00:49:54;21.85;;;12.43;;
12635;SDS011;6383;50.830;7.210;2022-12-18T00:52:25;24.38;;;14.45;;
12635;SDS011;6383;50.830;7.210;2022-12-18T00:54:52;19.05;;;12.50;;
12635;SDS011;6383;50.830;7.210;2022-12-18T00:57:21;21.50;;;12.57;;
12635;SDS011;6383;50.830;7.210;2022-12-18T00:59:49;26.65;;;15.82;;
12635;SDS011;6383;50.830;7.210;2022-12-18T01:02:17;29.60;;;17.63;;
12635;SDS011;6383;50.830;7.210;2022-12-18T01:04:44;35.15;;;22.13;;
12635;SDS011;6383;50.830;7.210;2022-12-18T01:07:12;37.08;;;22.42;;
12635;SDS011;6383;50.830;7.210;2022-12-18T01:09:41;31.77;;;21.35;;
12635;SDS011;6383;50.830;7.210;2022-12-18T01:12:10;29.92;;;19.23;;
12635;SDS011;6383;50.830;7.210;2022-12-18T01:14:38;30.73;;;17.60;;
12635;SDS011;6383;50.830;7.210;2022-12-18T01:17:06;31.92;;;17.00;;
12635;SDS011;6383;50.830;7.210;2022-12-18T01:19:34;34.28;;;17.40;;
12635;SDS011;6383;50.830;7.210;2022-12-18T01:22:02;32.78;;;17.75;;
12635;SDS011;6383;50.830;7.210;2022-12-18T01:24:30;27.05;;;16.55;;
12635;SDS011;6383;50.830;7.210;2022-12-18T01:26:59;30.77;;;17.33;;
12635;SDS011;6383;50.830;7.210;2022-12-18T01:29:28;28.73;;;15.35;;
12635;SDS011;6383;50.830;7.210;2022-12-18T01:31:55;36.50;;;17.67;;
12635;SDS011;6383;50.830;7.210;2022-12-18T01:34:23;24.40;;;15.32;;
12635;SDS011;6383;50.830;7.210;2022-12-18T01:36:52;28.80;;;17.65;;
12635;SDS011;6383;50.830;7.210;2022-12-18T01:39:21;30.50;;;17.13;;
12635;SDS011;6383;50.830;7.210;2022-12-18T01:41:49;30.10;;;17.50;;
12635;SDS011;6383;50.830;7.210;2022-12-18T01:47:39;27.75;;;15.55;;
12635;SDS011;6383;50.830;7.210;2022-12-18T01:50:11;21.40;;;14.10;;
12635;SDS011;6383;50.830;7.210;2022-12-18T01:52:42;25.88;;;14.93;;
12635;SDS011;6383;50.830;7.210;2022-12-18T01:55:15;25.13;;;15.15;;
12635;SDS011;6383;50.830;7.210;2022-12-18T01:57:46;22.42;;;14.45;;
12635;SDS011;6383;50.830;7.210;2022-12-18T02:00:16;26.23;;;15.85;;
12635;SDS011;6383;50.830;7.210;2022-12-18T02:02:47;28.52;;;14.90;;
12635;SDS011;6383;50.830;7.210;2022-12-18T02:05:16;28.98;;;15.25;;
12635;SDS011;6383;50.830;7.210;2022-12-18T02:07:53;30.27;;;15.80;;
12635;SDS011;6383;50.830;7.210;2022-12-18T02:10:29;27.20;;;14.15;;
12635;SDS011;6383;50.830;7.210;2022-12-18T02:13:06;31.73;;;15.48;;
12635;SDS011;6383;50.830;7.210;2022-12-18T02:15:51;27.45;;;15.60;;
12635;SDS011;6383;50.830;7.210;2022-12-18T02:18:27;37.28;;;16.67;;
12635;SDS011;6383;50.830;7.210;2022-12-18T02:21:00;32.08;;;17.23;;
12635;SDS011;6383;50.830;7.210;2022-12-18T02:23:47;27.48;;;14.73;;
12635;SDS011;6383;50.830;7.210;2022-12-18T02:26:21;30.30;;;15.32;;
12635;SDS011;6383;50.830;7.210;2022-12-18T02:28:56;28.73;;;14.43;;
12635;SDS011;6383;50.830;7.210;2022-12-18T02:31:30;29.15;;;15.50;;
12635;SDS011;6383;50.830;7.210;2022-12-18T02:34:03;33.70;;;16.38;;
12635;SDS011;6383;50.830;7.210;2022-12-18T02:36:36;28.02;;;14.70;;
12635;SDS011;6383;50.830;7.210;2022-12-18T02:39:09;22.88;;;14.80;;
12635;SDS011;6383;50.830;7.210;2022-12-18T02:41:41;26.58;;;14.18;;
12635;SDS011;6383;50.830;7.210;2022-12-18T02:44:11;27.20;;;13.93;;
12635;SDS011;6383;50.830;7.210;2022-12-18T02:46:41;25.52;;;14.30;;
12635;SDS011;6383;50.830;7.210;2022-12-18T02:49:18;23.83;;;13.32;;
12635;SDS011;6383;50.830;7.210;2022-12-18T02:51:52;30.42;;;14.48;;
12635;SDS011;6383;50.830;7.210;2022-12-18T02:57:23;24.70;;;13.20;;
12635;SDS011;6383;50.830;7.210;2022-12-18T02:59:58;26.25;;;14.18;;
12635;SDS011;6383;50.830;7.210;2022-12-18T03:02:35;27.35;;;14.63;;
12635;SDS011;6383;50.830;7.210;2022-12-18T03:05:10;24.73;;;13.63;;
12635;SDS011;6383;50.830;7.210;2022-12-18T03:07:43;22.73;;;12.82;;
12635;SDS011;6383;50.830;7.210;2022-12-18T03:10:17;25.35;;;15.30;;
12635;SDS011;6383;50.830;7.210;2022-12-18T03:15:23;27.63;;;14.70;;
12635;SDS011;6383;50.830;7.210;2022-12-18T03:17:57;26.13;;;15.15;;
12635;SDS011;6383;50.830;7.210;2022-12-18T03:20:30;30.15;;;16.15;;
12635;SDS011;6383;50.830;7.210;2022-12-18T03:23:02;25.80;;;15.02;;
12635;SDS011;6383;50.830;7.210;2022-12-18T03:25:37;27.48;;;14.80;;
12635;SDS011;6383;50.830;7.210;2022-12-18T03:28:10;28.52;;;14.93;;
12635;SDS011;6383;50.830;7.210;2022-12-18T03:30:41;33.05;;;15.38;;
12635;SDS011;6383;50.830;7.210;2022-12-18T03:33:13;22.70;;;14.20;;
12635;SDS011;6383;50.830;7.210;2022-12-18T03:35:47;26.75;;;14.88;;
12635;SDS011;6383;50.830;7.210;2022-12-18T03:38:15;27.00;;;14.05;;
12635;SDS011;6383;50.830;7.210;2022-12-18T03:40:45;28.70;;;14.80;;
12635;SDS011;6383;50.830;7.210;2022-12-18T03:43:28;32.05;;;15.73;;
12635;SDS011;6383;50.830;7.210;2022-12-18T03:46:05;24.10;;;13.32;;
12635;SDS011;6383;50.830;7.210;2022-12-18T03:48:41;24.75;;;13.73;;
12635;SDS011;6383;50.830;7.210;2022-12-18T03:51:13;22.42;;;13.02;;
12635;SDS011;6383;50.830;7.210;2022-12-18T03:53:46;24.73;;;14.18;;
12635;SDS011;6383;50.830;7.210;2022-12-18T03:56:20;23.00;;;13.70;;
12635;SDS011;6383;50.830;7.210;2022-12-18T03:58:52;25.27;;;14.43;;
12635;SDS011;6383;50.830;7.210;2022-12-18T04:01:24;26.20;;;13.27;;
12635;SDS011;6383;50.830;7.210;2022-12-18T04:03:57;26.45;;;13.20;;
12635;SDS011;6383;50.830;7.210;2022-12-18T04:06:28;27.02;;;13.77;;
12635;SDS011;6383;50.830;7.210;2022-12-18T04:08:58;20.30;;;13.80;;
12635;SDS011;6383;50.830;7.210;2022-12-18T04:11:26;26.00;;;15.50;;
12635;SDS011;6383;50.830;7.210;2022-12-18T04:13:56;24.77;;;14.75;;
12635;SDS011;6383;50.830;7.210;2022-12-18T04:16:26;25.88;;;13.57;;
12635;SDS011;6383;50.830;7.210;2022-12-18T04:18:55;25.10;;;13.55;;
12635;SDS011;6383;50.830;7.210;2022-12-18T04:21:24;24.38;;;14.07;;
12635;SDS011;6383;50.830;7.210;2022-12-18T04:23:54;24.15;;;13.10;;
12635;SDS011;6383;50.830;7.210;2022-12-18T04:26:22;24.05;;;12.98;;
12635;SDS011;6383;50.830;7.210;2022-12-18T04:28:50;25.67;;;13.50;;
12635;SDS011;6383;50.830;7.210;2022-12-18T04:31:21;23.55;;;12.88;;
12635;SDS011;6383;50.830;7.210;2022-12-18T04:33:50;20.15;;;11.63;;
12635;SDS011;6383;50.830;7.210;2022-12-18T04:36:18;23.33;;;13.30;;
12635;SDS011;6383;50.830;7.210;2022-12-18T04:38:46;23.85;;;12.45;;
12635;SDS011;6383;50.830;7.210;2022-12-18T04:41:15;23.23;;;12.95;;
12635;SDS011;6383;50.830;7.210;2022-12-18T04:43:43;21.40;;;11.85;;
12635;SDS011;6383;50.830;7.210;2022-12-18T04:46:10;19.60;;;11.70;;
12635;SDS011;6383;50.830;7.210;2022-12-18T04:48:41;19.42;;;11.43;;
12635;SDS011;6383;50.830;7.210;2022-12-18T04:51:08;17.98;;;12.15;;
12635;SDS011;6383;50.830;7.210;2022-12-18T04:53:38;20.02;;;12.95;;
12635;SDS011;6383;50.830;7.210;2022-12-18T04:56:06;21.42;;;12.18;;
12635;SDS011;6383;50.830;7.210;2022-12-18T04:58:37;18.35;;;12.68;;
12635;SDS011;6383;50.830;7.210;2022-12-18T05:01:05;22.35;;;12.55;;
12635;SDS011;6383;50.830;7.210;2022-12-18T05:03:35;22.85;;;12.95;;
12635;SDS011;6383;50.830;7.210;2022-12-18T05:06:06;18.70;;;11.45;;
12635;SDS011;6383;50.830;7.210;2022-12-18T05:08:35;19.55;;;13.38;;
12635;SDS011;6383;50.830;7.210;2022-12-18T05:11:05;21.08;;;13.10;;
12635;SDS011;6383;50.830;7.210;2022-12-18T05:13:35;24.65;;;12.63;;
12635;SDS011;6383;50.830;7.210;2022-12-18T05:16:05;23.50;;;12.10;;
12635;SDS011;6383;50.830;7.210;2022-12-18T05:18:34;24.58;;;13.38;;
12635;SDS011;6383;50.830;7.210;2022-12-18T05:21:03;23.52;;;11.43;;
12635;SDS011;6383;50.830;7.210;2022-12-18T05:23:33;22.38;;;11.10;;
12635;SDS011;6383;50.830;7.210;2022-12-18T05:26:04;23.55;;;12.48;;
12635;SDS011;6383;50.830;7.210;2022-12-18T05:28:35;18.40;;;11.65;;
12635;SDS011;6383;50.830;7.210;2022-12-18T05:31:04;18.63;;;11.43;;
12635;SDS011;6383;50.830;7.210;2022-12-18T05:33:33;20.95;;;12.73;;
12635;SDS011;6383;50.830;7.210;2022-12-18T05:36:02;17.33;;;11.70;;
12635;SDS011;6383;50.830;7.210;2022-12-18T05:38:35;19.77;;;10.65;;
12635;SDS011;6383;50.830;7.210;2022-12-18T05:41:05;19.17;;;11.55;;
12635;SDS011;6383;50.830;7.210;2022-12-18T05:43:34;21.67;;;12.07;;
12635;SDS011;6383;50.830;7.210;2022-12-18T05:46:05;19.63;;;11.40;;
12635;SDS011;6383;50.830;7.210;2022-12-18T05:48:33;18.80;;;12.10;;
12635;SDS011;6383;50.830;7.210;2022-12-18T05:51:03;20.65;;;11.95;;
12635;SDS011;6383;50.830;7.210;2022-12-18T05:53:34;17.55;;;10.90;;
12635;SDS011;6383;50.830;7.210;2022-12-18T05:56:06;17.65;;;10.90;;
12635;SDS011;6383;50.830;7.210;2022-12-18T05:58:35;20.42;;;11.52;;
12635;SDS011;6383;50.830;7.210;2022-12-18T06:01:07;19.75;;;12.25;;
12635;SDS011;6383;50.830;7.210;2022-12-18T06:03:36;17.95;;;9.93;;
12635;SDS011;6383;50.830;7.210;2022-12-18T06:06:04;17.88;;;10.77;;
12635;SDS011;6383;50.830;7.210;2022-12-18T06:08:41;19.50;;;10.55;;
12635;SDS011;6383;50.830;7.210;2022-12-18T06:11:10;21.42;;;11.60;;
12635;SDS011;6383;50.830;7.210;2022-12-18T06:13:39;20.52;;;11.65;;
12635;SDS011;6383;50.830;7.210;2022-12-18T06:16:08;22.77;;;12.65;;
12635;SDS011;6383;50.830;7.210;2022-12-18T06:18:36;25.25;;;13.98;;
12635;SDS011;6383;50.830;7.210;2022-12-18T06:21:03;26.02;;;13.10;;
12635;SDS011;6383;50.830;7.210;2022-12-18T06:23:31;21.33;;;12.45;;
12635;SDS011;6383;50.830;7.210;2022-12-18T06:26:04;27.00;;;13.82;;
12635;SDS011;6383;50.830;7.210;2022-12-18T06:28:33;18.17;;;12.05;;
12635;SDS011;6383;50.830;7.210;2022-12-18T06:31:02;23.13;;;12.63;;
12635;SDS011;6383;50.830;7.210;2022-12-18T06:33:30;22.27;;;11.88;;
12635;SDS011;6383;50.830;7.210;2022-12-18T06:36:00;28.17;;;13.65;;
12635;SDS011;6383;50.830;7.210;2022-12-18T06:38:30;27.40;;;14.23;;
12635;SDS011;6383;50.830;7.210;2022-12-18T06:41:00;23.10;;;14.05;;
12635;SDS011;6383;50.830;7.210;2022-12-18T06:43:29;22.10;;;13.13;;
12635;SDS011;6383;50.830;7.210;2022-12-18T06:45:59;23.33;;;14.88;;
12635;SDS011;6383;50.830;7.210;2022-12-18T06:48:28;26.77;;;14.75;;
12635;SDS011;6383;50.830;7.210;2022-12-18T06:50:56;20.77;;;13.65;;
12635;SDS011;6383;50.830;7.210;2022-12-18T06:53:24;22.98;;;12.57;;
12635;SDS011;6383;50.830;7.210;2022-12-18T06:55:58;20.48;;;12.73;;
12635;SDS011;6383;50.830;7.210;2022-12-18T06:58:27;19.73;;;12.50;;
12635;SDS011;6383;50.830;7.210;2022-12-18T07:00:59;22.92;;;12.70;;
12635;SDS011;6383;50.830;7.210;2022-12-18T07:03:28;26.33;;;14.90;;
12635;SDS011;6383;50.830;7.210;2022-12-18T07:05:56;30.30;;;16.95;;
12635;SDS011;6383;50.830;7.210;2022-12-18T07:08:23;25.10;;;15.27;;
12635;SDS011;6383;50.830;7.210;2022-12-18T07:10:52;26.48;;;15.63;;
12635;SDS011;6383;50.830;7.210;2022-12-18T07:13:21;26.42;;;15.13;;
12635;SDS011;6383;50.830;7.210;2022-12-18T07:15:50;20.73;;;14.73;;
12635;SDS011;6383;50.830;7.210;2022-12-18T07:18:18;19.52;;;13.75;;
12635;SDS011;6383;50.830;7.210;2022-12-18T07:20:47;24.35;;;13.77;;
12635;SDS011;6383;50.830;7.210;2022-12-18T07:23:14;23.85;;;14.90;;
12635;SDS011;6383;50.830;7.210;2022-12-18T07:25:43;22.10;;;13.18;;
12635;SDS011;6383;50.830;7.210;2022-12-18T07:28:10;25.25;;;13.77;;
12635;SDS011;6383;50.830;7.210;2022-12-18T07:30:39;37.17;;;16.73;;
12635;SDS011;6383;50.830;7.210;2022-12-18T07:33:10;37.05;;;19.67;;
12635;SDS011;6383;50.830;7.210;2022-12-18T07:35:38;39.35;;;19.58;;
12635;SDS011;6383;50.830;7.210;2022-12-18T07:38:06;31.88;;;17.40;;
12635;SDS011;6383;50.830;7.210;2022-12-18T07:40:34;21.85;;;12.63;;
12635;SDS011;6383;50.830;7.210;2022-12-18T07:43:02;25.88;;;14.63;;
12635;SDS011;6383;50.830;7.210;2022-12-18T07:45:30;28.55;;;15.75;;
12635;SDS011;6383;50.830;7.210;2022-12-18T07:47:59;27.25;;;14.55;;
12635;SDS011;6383;50.830;7.210;2022-12-18T07:50:30;27.73;;;16.67;;
12635;SDS011;6383;50.830;7.210;2022-12-18T07:52:57;25.67;;;15.57;;
12635;SDS011;6383;50.830;7.210;2022-12-18T07:55:29;25.85;;;14.85;;
12635;SDS011;6383;50.830;7.210;2022-12-18T07:58:00;20.88;;;14.77;;
12635;SDS011;6383;50.830;7.210;2022-12-18T08:00:30;21.83;;;13.57;;
12635;SDS011;6383;50.830;7.210;2022-12-18T08:02:59;17.98;;;12.07;;
12635;SDS011;6383;50.830;7.210;2022-12-18T08:05:27;21.40;;;12.38;;
12635;SDS011;6383;50.830;7.210;2022-12-18T08:07:56;24.05;;;13.48;;
12635;SDS011;6383;50.830;7.210;2022-12-18T08:10:26;20.05;;;13.38;;
12635;SDS011;6383;50.830;7.210;2022-12-18T08:12:55;22.60;;;13.57;;
12635;SDS011;6383;50.830;7.210;2022-12-18T08:15:24;22.25;;;12.93;;
12635;SDS011;6383;50.830;7.210;2022-12-18T08:17:55;16.77;;;11.88;;
12635;SDS011;6383;50.830;7.210;2022-12-18T08:20:24;18.98;;;12.80;;
12635;SDS011;6383;50.830;7.210;2022-12-18T08:22:53;18.60;;;12.45;;
12635;SDS011;6383;50.830;7.210;2022-12-18T08:25:22;18.50;;;12.25;;
12635;SDS011;6383;50.830;7.210;2022-12-18T08:27:50;24.80;;;15.00;;
12635;SDS011;6383;50.830;7.210;2022-12-18T08:30:18;28.63;;;17.08;;
12635;SDS011;6383;50.830;7.210;2022-12-18T08:32:49;35.05;;;18.77;;
12635;SDS011;6383;50.830;7.210;2022-12-18T08:35:19;35.40;;;19.98;;
12635;SDS011;6383;50.830;7.210;2022-12-18T08:37:48;32.05;;;19.42;;
12635;SDS011;6383;50.830;7.210;2022-12-18T08:40:18;36.42;;;20.95;;
12635;SDS011;6383;50.830;7.210;2022-12-18T08:42:49;36.30;;;20.88;;
12635;SDS011;6383;50.830;7.210;2022-12-18T08:45:34;32.47;;;20.80;;
12635;SDS011;6383;50.830;7.210;2022-12-18T08:48:03;40.63;;;21.98;;
12635;SDS011;6383;50.830;7.210;2022-12-18T08:50:31;35.72;;;21.08;;
12635;SDS011;6383;50.830;7.210;2022-12-18T08:52:59;35.63;;;21.90;;
12635;SDS011;6383;50.830;7.210;2022-12-18T08:55:28;44.00;;;26.63;;
12635;SDS011;6383;50.830;7.210;2022-12-18T08:57:57;43.80;;;25.02;;
12635;SDS011;6383;50.830;7.210;2022-12-18T09:00:26;32.90;;;21.10;;
12635;SDS011;6383;50.830;7.210;2022-12-18T09:02:55;37.75;;;22.20;;
12635;SDS011;6383;50.830;7.210;2022-12-18T09:05:22;29.17;;;19.10;;
12635;SDS011;6383;50.830;7.210;2022-12-18T09:07:51;25.13;;;15.25;;
12635;SDS011;6383;50.830;7.210;2022-12-18T09:10:19;21.30;;;13.55;;
12635;SDS011;6383;50.830;7.210;2022-12-18T09:12:48;22.38;;;14.07;;
12635;SDS011;6383;50.830;7.210;2022-12-18T09:15:17;21.63;;;14.23;;
12635;SDS011;6383;50.830;7.210;2022-12-18T09:17:45;20.17;;;11.45;;
12635;SDS011;6383;50.830;7.210;2022-12-18T09:20:12;19.60;;;12.82;;
12635;SDS011;6383;50.830;7.210;2022-12-18T09:22:41;21.15;;;13.75;;
12635;SDS011;6383;50.830;7.210;2022-12-18T09:25:09;19.83;;;12.85;;
12635;SDS011;6383;50.830;7.210;2022-12-18T09:27:38;19.23;;;12.50;;
12635;SDS011;6383;50.830;7.210;2022-12-18T09:30:07;17.42;;;12.05;;
12635;SDS011;6383;50.830;7.210;2022-12-18T09:32:37;22.58;;;13.60;;
12635;SDS011;6383;50.830;7.210;2022-12-18T09:35:05;21.42;;;12.77;;
12635;SDS011;6383;50.830;7.210;2022-12-18T09:37:33;24.38;;;13.63;;
12635;SDS011;6383;50.830;7.210;2022-12-18T09:40:00;24.70;;;12.95;;
12635;SDS011;6383;50.830;7.210;2022-12-18T09:42:28;23.63;;;13.18;;
12635;SDS011;6383;50.830;7.210;2022-12-18T09:44:55;20.73;;;12.18;;
12635;SDS011;6383;50.830;7.210;2022-12-18T09:47:27;20.08;;;12.63;;
12635;SDS011;6383;50.830;7.210;2022-12-18T09:50:16;22.65;;;13.15;;
12635;SDS011;6383;50.830;7.210;2022-12-18T09:52:51;18.88;;;11.98;;
12635;SDS011;6383;50.830;7.210;2022-12-18T09:55:24;21.85;;;13.57;;
12635;SDS011;6383;50.830;7.210;2022-12-18T10:00:29;21.65;;;14.40;;
12635;SDS011;6383;50.830;7.210;2022-12-18T10:02:58;20.98;;;12.48;;
12635;SDS011;6383;50.830;7.210;2022-12-18T10:05:33;19.40;;;12.65;;
12635;SDS011;6383;50.830;7.210;2022-12-18T10:08:08;18.92;;;11.85;;
12635;SDS011;6383;50.830;7.210;2022-12-18T10:10:42;18.60;;;11.88;;
12635;SDS011;6383;50.830;7.210;2022-12-18T10:13:15;18.75;;;12.40;;
12635;SDS011;6383;50.830;7.210;2022-12-18T10:16:02;17.40;;;12.82;;
12635;SDS011;6383;50.830;7.210;2022-12-18T10:18:39;22.35;;;13.25;;
12635;SDS011;6383;50.830;7.210;2022-12-18T10:21:26;20.23;;;12.52;;
12635;SDS011;6383;50.830;7.210;2022-12-18T10:24:01;18.13;;;11.63;;
12635;SDS011;6383;50.830;7.210;2022-12-18T10:26:40;17.38;;;11.50;;
12635;SDS011;6383;50.830;7.210;2022-12-18T10:29:09;22.25;;;13.13;;
12635;SDS011;6383;50.830;7.210;2022-12-18T10:31:41;17.55;;;11.70;;
12635;SDS011;6383;50.830;7.210;2022-12-18T10:34:10;17.52;;;11.40;;
12635;SDS011;6383;50.830;7.210;2022-12-18T10:36:44;20.50;;;11.60;;
12635;SDS011;6383;50.830;7.210;2022-12-18T10:39:15;18.08;;;11.73;;
12635;SDS011;6383;50.830;7.210;2022-12-18T10:41:43;20.70;;;12.75;;
12635;SDS011;6383;50.830;7.210;2022-12-18T10:44:14;19.20;;;11.93;;
12635;SDS011;6383;50.830;7.210;2022-12-18T10:46:46;19.27;;;12.20;;
12635;SDS011;6383;50.830;7.210;2022-12-18T10:49:24;19.88;;;12.85;;
12635;SDS011;6383;50.830;7.210;2022-12-18T10:52:05;22.10;;;14.15;;
12635;SDS011;6383;50.830;7.210;2022-12-18T10:54:39;21.60;;;12.60;;
12635;SDS011;6383;50.830;7.210;2022-12-18T10:57:15;19.80;;;12.50;;
12635;SDS011;6383;50.830;7.210;2022-12-18T10:59:51;18.75;;;12.18;;
12635;SDS011;6383;50.830;7.210;2022-12-18T11:02:25;19.13;;;11.98;;
12635;SDS011;6383;50.830;7.210;2022-12-18T11:05:07;21.23;;;13.25;;
12635;SDS011;6383;50.830;7.210;2022-12-18T11:07:53;21.67;;;12.98;;
12635;SDS011;6383;50.830;7.210;2022-12-18T11:10:23;20.20;;;13.65;;
12635;SDS011;6383;50.830;7.210;2022-12-18T11:12:54;21.58;;;12.43;;
12635;SDS011;6383;50.830;7.210;2022-12-18T11:15:26;20.88;;;12.48;;
12635;SDS011;6383;50.830;7.210;2022-12-18T11:17:57;20.90;;;13.45;;
12635;SDS011;6383;50.830;7.210;2022-12-18T11:20:30;22.00;;;12.98;;
12635;SDS011;6383;50.830;7.210;2022-12-18T11:23:02;20.67;;;13.02;;
12635;SDS011;6383;50.830;7.210;2022-12-18T11:25:31;18.73;;;13.00;;
12635;SDS011;6383;50.830;7.210;2022-12-18T11:28:03;20.38;;;12.80;;
12635;SDS011;6383;50.830;7.210;2022-12-18T11:30:34;23.65;;;13.95;;
12635;SDS011;6383;50.830;7.210;2022-12-18T11:33:04;18.92;;;13.70;;
12635;SDS011;6383;50.830;7.210;2022-12-18T11:35:42;23.70;;;14.35;;
12635;SDS011;6383;50.830;7.210;2022-12-18T11:38:19;27.50;;;14.88;;
12635;SDS011;6383;50.830;7.210;2022-12-18T11:40:51;19.55;;;13.30;;
12635;SDS011;6383;50.830;7.210;2022-12-18T11:43:25;25.50;;;15.77;;
12635;SDS011;6383;50.830;7.210;2022-12-18T11:45:56;26.48;;;15.63;;
12635;SDS011;6383;50.830;7.210;2022-12-18T11:48:32;20.58;;;13.75;;
12635;SDS011;6383;50.830;7.210;2022-12-18T11:51:05;22.75;;;14.90;;
12635;SDS011;6383;50.830;7.210;2022-12-18T11:53:42;21.35;;;14.52;;
12635;SDS011;6383;50.830;7.210;2022-12-18T11:56:16;26.10;;;15.52;;
12635;SDS011;6383;50.830;7.210;2022-12-18T11:58:57;25.60;;;15.30;;
12635;SDS011;6383;50.830;7.210;2022-12-18T12:01:39;23.13;;;14.45;;
12635;SDS011;6383;50.830;7.210;2022-12-18T12:04:17;22.38;;;15.63;;
12635;SDS011;6383;50.830;7.210;2022-12-18T12:07:04;24.85;;;15.77;;
12635;SDS011;6383;50.830;7.210;2022-12-18T12:09:44;22.42;;;15.43;;
12635;SDS011;6383;50.830;7.210;2022-12-18T12:12:23;32.58;;;18.80;;
12635;SDS011;6383;50.830;7.210;2022-12-18T12:15:13;25.35;;;15.32;;
12635;SDS011;6383;50.830;7.210;2022-12-18T12:17:53;22.65;;;15.02;;
12635;SDS011;6383;50.830;7.210;2022-12-18T12:20:26;25.42;;;15.02;;
12635;SDS011;6383;50.830;7.210;2022-12-18T12:23:06;22.08;;;14.10;;
12635;SDS011;6383;50.830;7.210;2022-12-18T12:25:46;26.88;;;15.38;;
12635;SDS011;6383;50.830;7.210;2022-12-18T12:28:24;27.15;;;15.60;;
12635;SDS011;6383;50.830;7.210;2022-12-18T12:31:05;22.25;;;14.82;;
12635;SDS011;6383;50.830;7.210;2022-12-18T12:33:42;27.17;;;15.13;;
12635;SDS011;6383;50.830;7.210;2022-12-18T12:36:21;29.02;;;15.90;;
12635;SDS011;6383;50.830;7.210;2022-12-18T12:38:56;23.35;;;16.17;;
12635;SDS011;6383;50.830;7.210;2022-12-18T12:41:30;24.42;;;15.88;;
12635;SDS011;6383;50.830;7.210;2022-12-18T12:44:20;23.65;;;16.08;;
12635;SDS011;6383;50.830;7.210;2022-12-18T12:46:52;32.60;;;17.73;;
12635;SDS011;6383;50.830;7.210;2022-12-18T12:49:24;24.92;;;16.92;;
12635;SDS011;6383;50.830;7.210;2022-12-18T12:51:56;22.90;;;15.05;;
12635;SDS011;6383;50.830;7.210;2022-12-18T12:54:39;25.58;;;16.25;;
12635;SDS011;6383;50.830;7.210;2022-12-18T12:57:09;26.25;;;16.15;;
12635;SDS011;6383;50.830;7.210;2022-12-18T12:59:45;23.35;;;15.65;;
12635;SDS011;6383;50.830;7.210;2022-12-18T13:02:20;24.00;;;15.00;;
12635;SDS011;6383;50.830;7.210;2022-12-18T13:04:58;25.38;;;16.63;;
12635;SDS011;6383;50.830;7.210;2022-12-18T13:07:32;29.75;;;17.70;;
12635;SDS011;6383;50.830;7.210;2022-12-18T13:10:11;27.15;;;16.85;;
12635;SDS011;6383;50.830;7.210;2022-12-18T13:12:56;24.98;;;16.38;;
12635;SDS011;6383;50.830;7.210;2022-12-18T13:15:25;28.13;;;16.73;;
12635;SDS011;6383;50.830;7.210;2022-12-18T13:18:04;25.95;;;17.30;;
12635;SDS011;6383;50.830;7.210;2022-12-18T13:20:40;25.73;;;16.33;;
12635;SDS011;6383;50.830;7.210;2022-12-18T13:23:23;31.40;;;16.05;;
12635;SDS011;6383;50.830;7.210;2022-12-18T13:25:57;28.48;;;16.00;;
12635;SDS011;6383;50.830;7.210;2022-12-18T13:34:38;31.33;;;19.02;;
12635;SDS011;6383;50.830;7.210;2022-12-18T13:43:24;29.45;;;19.13;;
12635;SDS011;6383;50.830;7.210;2022-12-18T13:46:16;33.35;;;19.63;;
12635;SDS011;6383;50.830;7.210;2022-12-18T13:48:54;28.98;;;18.48;;
12635;SDS011;6383;50.830;7.210;2022-12-18T13:51:25;31.13;;;19.30;;
12635;SDS011;6383;50.830;7.210;2022-12-18T13:53:55;26.48;;;17.90;;
12635;SDS011;6383;50.830;7.210;2022-12-18T13:56:28;30.70;;;18.23;;
12635;SDS011;6383;50.830;7.210;2022-12-18T14:01:52;32.50;;;21.65;;
12635;SDS011;6383;50.830;7.210;2022-12-18T14:04:23;26.67;;;17.10;;
12635;SDS011;6383;50.830;7.210;2022-12-18T14:06:53;27.27;;;18.60;;
12635;SDS011;6383;50.830;7.210;2022-12-18T14:09:26;27.38;;;19.17;;
12635;SDS011;6383;50.830;7.210;2022-12-18T14:11:56;31.33;;;18.65;;
12635;SDS011;6383;50.830;7.210;2022-12-18T14:14:41;30.60;;;19.52;;
12635;SDS011;6383;50.830;7.210;2022-12-18T14:17:13;31.92;;;20.40;;
12635;SDS011;6383;50.830;7.210;2022-12-18T14:19:44;28.30;;;18.05;;
12635;SDS011;6383;50.830;7.210;2022-12-18T14:22:14;33.55;;;19.90;;
12635;SDS011;6383;50.830;7.210;2022-12-18T14:24:45;30.13;;;18.98;;
12635;SDS011;6383;50.830;7.210;2022-12-18T14:27:20;34.88;;;20.45;;
12635;SDS011;6383;50.830;7.210;2022-12-18T14:29:49;38.90;;;23.25;;
12635;SDS011;6383;50.830;7.210;2022-12-18T14:32:19;29.50;;;19.73;;
12635;SDS011;6383;50.830;7.210;2022-12-18T14:34:50;32.92;;;20.95;;
12635;SDS011;6383;50.830;7.210;2022-12-18T14:37:20;38.70;;;21.15;;
12635;SDS011;6383;50.830;7.210;2022-12-18T14:39:54;35.15;;;21.98;;
12635;SDS011;6383;50.830;7.210;2022-12-18T14:42:25;39.60;;;22.95;;
12635;SDS011;6383;50.830;7.210;2022-12-18T14:48:12;30.83;;;19.35;;
12635;SDS011;6383;50.830;7.210;2022-12-18T14:50:44;31.80;;;19.38;;
12635;SDS011;6383;50.830;7.210;2022-12-18T14:53:22;31.75;;;20.58;;
12635;SDS011;6383;50.830;7.210;2022-12-18T14:56:02;34.13;;;22.05;;
12635;SDS011;6383;50.830;7.210;2022-12-18T14:58:44;36.22;;;21.33;;
12635;SDS011;6383;50.830;7.210;2022-12-18T15:01:18;32.40;;;20.58;;
12635;SDS011;6383;50.830;7.210;2022-12-18T15:03:49;39.30;;;21.85;;
12635;SDS011;6383;50.830;7.210;2022-12-18T15:06:27;32.80;;;21.02;;
12635;SDS011;6383;50.830;7.210;2022-12-18T15:09:00;35.58;;;20.88;;
12635;SDS011;6383;50.830;7.210;2022-12-18T15:11:42;32.90;;;20.83;;
12635;SDS011;6383;50.830;7.210;2022-12-18T15:14:22;32.53;;;20.30;;
12635;SDS011;6383;50.830;7.210;2022-12-18T15:17:13;32.80;;;20.00;;
12635;SDS011;6383;50.830;7.210;2022-12-18T15:19:47;34.90;;;21.38;;
12635;SDS011;6383;50.830;7.210;2022-12-18T15:22:21;32.00;;;21.10;;
12635;SDS011;6383;50.830;7.210;2022-12-18T15:24:51;33.22;;;22.02;;
12635;SDS011;6383;50.830;7.210;2022-12-18T15:27:20;29.77;;;20.20;;
12635;SDS011;6383;50.830;7.210;2022-12-18T15:30:01;37.35;;;22.27;;